Ireland METAR reports

 

EIDW - Dublin Airport, Ireland
Distance from station: WNW 13km
Updated: 18/01/2020 19:30
Mostly cloudy
Mostly cloudy
 Wind from WSW
Wind: WSW 9 km/h
Temperature: 2°C
Wind Chill: -1°C
Dew Point: 0°C
Humidity: 87%
Barometer: 1036 hPa
Clouds: Mostly cloudy
Visibility: 10 km
Cloud details: Few Clouds 914 m
Mostly cloudy 4572 m
2020/01/18 19:30 EIDW 181930Z 25005KT 9999 FEW030 BKN150 02/M00 Q1036 NOSIG
EIME - Casement (mil), Ireland
Distance from station: WSW 26km
Updated: 18/01/2020 19:00
Mostly cloudy
Mostly cloudy
 Wind from SW
Wind: SW 13 km/h
Temperature: 1°C
Wind Chill: -3°C
Dew Point: -1°C
Humidity: 87%
Barometer: 1035 hPa
Clouds: Mostly cloudy
Visibility: 10 km
Cloud details: Few Clouds 549 m
Mostly cloudy 4877 m
2020/01/18 19:00 EIME 181900Z 22007KT 9999 FEW018 BKN160 01/M01 Q1035
 
EGAC - Belfast Harbour, United Kingdom
Distance from station: N 140km
Updated: 18/01/2020 19:20
Clear
Clear
 Wind from S
Wind: S 9 km/h
Temperature: 2°C
Wind Chill: -1°C
Dew Point: 1°C
Humidity: 93%
Barometer: 1035 hPa
Clouds: Clear
Visibility: 9 km
2020/01/18 19:20 EGAC 181920Z AUTO 17005KT 9000 NCD 02/01 Q1035
EGAA - Belfast/Aldergro, United Kingdom
Distance from station: N 141km
Updated: 18/01/2020 19:20
Clear
Clear
 Wind from SSE
Wind: SSE 4 km/h
Temperature: 0°C
Dew Point: 0°C
Humidity: 100%
Barometer: 1035 hPa
Summary: Clear
Visibility: greater than 10 km
2020/01/18 19:20 EGAA 181920Z 15002KT CAVOK 00/M00 Q1035
 
EIWF - Waterford Arpt, Ireland
Distance from station: SSW 148km
Updated: 18/01/2020 19:30
Clear
Clear
 Wind from NNE
Wind: NNE 4 km/h
Temperature: 1°C
Dew Point: -1°C
Humidity: 87%
Barometer: 1036 hPa
Summary: Clear
Visibility: greater than 10 km
2020/01/18 19:30 EIWF 181930Z 02002KT CAVOK 01/M01 Q1036
EIKN - Connaught Apt, Ireland
Distance from station: WNW 191km
Updated: 18/01/2020 19:30
Clear
Clear
 Wind from SW
Wind: SW 6 km/h
Temperature: 3°C
Dew Point: -1°C
Humidity: 75%
Barometer: 1035 hPa
Summary: Clear
Visibility: greater than 10 km
2020/01/18 19:30 EIKN 181930Z 23003KT CAVOK 03/M01 Q1035 NOSIG
 
EISG - Sligo Arpt, Ireland
Distance from station: WNW 195km
Updated: 18/01/2020 15:00
NOT Current
Clear
Clear
 Wind from E
Wind: E 4 km/h
Temperature: 4°C
Dew Point: 3°C
Humidity: 93%
Barometer: 1031 hPa
Summary: Clear
Visibility: greater than 10 km
2020/01/18 15:00 EISG 181500Z 08002KT CAVOK 04/03 Q1031
EGAE - Eglinton/Londond, United Kingdom
Distance from station: NNW 198km
Updated: 18/01/2020 14:20
NOT Current
Light rain, Showers, Partly cloudy
Light rain, Showers, Partly cloudy
 Wind from WNW
Wind: WNW 11 km/h
Temperature: 6°C
Wind Chill: 4°C
Dew Point: 4°C
Humidity: 87%
Barometer: 1030 hPa
Summary: Light rain, Showers
Clouds: Partly cloudy
Visibility: 10 km
Cloud details: Few Clouds 396 m
Partly cloudy 853 m
2020/01/18 14:20 EGAE 181420Z 30006KT 240V010 9999 -SHRA FEW013 SCT028 06/04 Q1030
 
EINN - Shannon Airport, Ireland
Distance from station: WSW 204km
Updated: 18/01/2020 19:30
Few Clouds
Few Clouds
 Wind from varies
Wind: varies 4 km/h
Temperature: 1°C
Dew Point: 0°C
Humidity: 93%
Barometer: 1037 hPa
Clouds: Few Clouds
Visibility: 10 km
Cloud details: Few Clouds 610 m
2020/01/18 19:30 EINN 181930Z VRB02KT 9999 R24/1200D R06/P2000 FEW020 01/00 Q1037 NOSIG
EICK - Cork Arpt/Corcai, Ireland
Distance from station: SW 234km
Updated: 18/01/2020 19:30
Few Clouds
Few Clouds
 Wind from NNE
Wind: NNE 7 km/h
Temperature: 3°C
Wind Chill: 1°C
Dew Point: 1°C
Humidity: 87%
Barometer: 1036 hPa
Clouds: Few Clouds
Visibility: 10 km
Cloud details: Few Clouds 762 m
2020/01/18 19:30 EICK 181930Z 02004KT 9999 FEW025 03/01 Q1036 NOSIG